Time;durP1;ratioP1;P1;durP2;ratioP2;P2;SDS_P1;SDS_P2;PMS_P1;PMS_P2;Temp;Humidity;BMP_temperature;BMP_pressure;BME280_temperature;BME280_humidity;BME280_pressure;Samples;Min_cycle;Max_cycle;Signal;HPM_P1;HPM_P2
2023/03/18 00:00:23;;;;;;;8.00;5.30;;;10.20;99.00;;;;;;5008628;28;20296;-72
2023/03/18 00:02:51;;;;;;;6.60;5.30;;;10.20;99.00;;;;;;5007901;28;20226;-70
2023/03/18 00:05:19;;;;;;;7.37;5.30;;;10.20;99.00;;;;;;5008653;28;20217;-71
2023/03/18 00:07:46;;;;;;;6.73;4.97;;;10.20;98.90;;;;;;5001907;28;20220;-70
2023/03/18 00:10:15;;;;;;;8.70;5.27;;;10.20;98.90;;;;;;4988641;28;20241;-70
2023/03/18 00:12:43;;;;;;;5.53;4.93;;;10.20;99.00;;;;;;5004671;28;20216;-70
2023/03/18 00:15:15;;;;;;;5.33;4.83;;;10.20;99.00;;;;;;5008109;28;20212;-70
2023/03/18 00:17:42;;;;;;;7.77;5.43;;;10.20;99.10;;;;;;5008150;28;20258;-71
2023/03/18 00:20:11;;;;;;;5.93;5.23;;;10.20;98.90;;;;;;5008129;28;20300;-71
2023/03/18 00:22:40;;;;;;;5.47;4.93;;;10.20;98.80;;;;;;5008255;28;20241;-71
2023/03/18 00:25:10;;;;;;;9.30;5.40;;;10.20;98.80;;;;;;5008152;28;20240;-71
2023/03/18 00:27:39;;;;;;;6.03;5.43;;;10.20;98.80;;;;;;5008464;28;20217;-71
2023/03/18 00:30:08;;;;;;;6.50;5.07;;;10.20;98.90;;;;;;5008079;28;20206;-71
2023/03/18 00:32:35;;;;;;;6.97;5.23;;;10.10;98.90;;;;;;5007739;28;20284;-70
2023/03/18 00:35:02;;;;;;;6.97;5.43;;;10.10;99.20;;;;;;5007778;28;20216;-72
2023/03/18 00:37:34;;;;;;;5.53;4.93;;;10.10;99.20;;;;;;5007896;28;20217;-72
2023/03/18 00:40:05;;;;;;;5.67;4.80;;;10.10;99.30;;;;;;5007966;28;20198;-71
2023/03/18 00:42:37;;;;;;;8.77;5.53;;;10.10;99.20;;;;;;5008191;28;20217;-71
2023/03/18 00:45:07;;;;;;;6.57;5.30;;;10.10;99.10;;;;;;5007930;28;20197;-71
2023/03/18 00:47:37;;;;;;;5.30;4.80;;;10.10;99.20;;;;;;5007673;28;20680;-71
2023/03/18 00:50:05;;;;;;;7.40;5.30;;;10.10;99.20;;;;;;5008063;28;20209;-70
2023/03/18 00:52:32;;;;;;;5.67;5.07;;;10.10;99.40;;;;;;5007593;28;20301;-71
2023/03/18 00:54:59;;;;;;;7.23;4.80;;;10.10;99.30;;;;;;5007785;28;20280;-71
2023/03/18 00:57:27;;;;;;;7.17;4.57;;;10.00;99.20;;;;;;5007975;28;20206;-71
2023/03/18 00:59:54;;;;;;;5.40;4.90;;;10.10;99.20;;;;;;5007228;28;20244;-71
2023/03/18 01:02:23;;;;;;;5.93;5.33;;;10.00;99.40;;;;;;5006733;28;20229;-71
2023/03/18 01:04:51;;;;;;;6.37;5.10;;;10.00;99.40;;;;;;5000600;28;20217;-72
2023/03/18 01:07:18;;;;;;;5.07;4.57;;;10.00;99.30;;;;;;5007316;28;20739;-71
2023/03/18 01:09:45;;;;;;;5.83;4.77;;;10.00;99.30;;;;;;5007165;28;20336;-71
2023/03/18 01:12:12;;;;;;;7.23;5.17;;;10.00;99.40;;;;;;4995204;28;20214;-70
2023/03/18 01:14:40;;;;;;;7.47;4.70;;;10.00;99.30;;;;;;4987489;28;20238;-71
2023/03/18 01:17:08;;;;;;;5.47;4.63;;;10.00;99.40;;;;;;4988911;28;20798;-70
2023/03/18 01:19:37;;;;;;;5.77;5.10;;;10.00;99.40;;;;;;5007156;28;20304;-70
2023/03/18 01:22:04;;;;;;;5.13;4.57;;;10.00;99.30;;;;;;5007079;28;20197;-70
2023/03/18 01:24:31;;;;;;;6.40;4.80;;;10.00;99.30;;;;;;5007325;28;20324;-70
2023/03/18 01:26:58;;;;;;;5.03;4.50;;;10.00;99.60;;;;;;5006956;28;20296;-69
2023/03/18 01:29:26;;;;;;;7.90;5.27;;;9.90;99.50;;;;;;5006709;28;20569;-69
2023/03/18 01:31:53;;;;;;;7.73;4.80;;;9.90;99.40;;;;;;4990936;28;20197;-69
2023/03/18 01:34:21;;;;;;;5.20;4.70;;;9.90;99.40;;;;;;5007245;28;20264;-69
2023/03/18 01:36:49;;;;;;;5.60;4.47;;;9.90;99.40;;;;;;5015000;28;20674;-69
2023/03/18 01:39:17;;;;;;;5.80;5.07;;;9.90;99.30;;;;;;5026802;28;20223;-70
2023/03/18 01:41:44;;;;;;;7.23;4.73;;;9.90;99.40;;;;;;5008899;28;20210;-70
2023/03/18 01:44:14;;;;;;;6.57;5.10;;;9.90;99.40;;;;;;5006559;28;21062;-70
2023/03/18 01:46:43;;;;;;;7.07;4.87;;;9.90;99.40;;;;;;5006882;28;20233;-70
2023/03/18 01:49:14;;;;;;;5.73;5.10;;;9.90;99.40;;;;;;5007136;28;20201;-70
2023/03/18 01:51:45;;;;;;;6.63;4.93;;;9.90;99.60;;;;;;5006312;28;21076;-71
2023/03/18 01:54:14;;;;;;;4.70;4.20;;;9.90;99.50;;;;;;5006682;28;20206;-71
2023/03/18 01:56:43;;;;;;;5.50;4.47;;;9.90;99.50;;;;;;5006394;28;20660;-71
2023/03/18 01:59:12;;;;;;;9.00;4.60;;;9.90;99.30;;;;;;5006592;28;20229;-71
2023/03/18 02:01:43;;;;;;;5.30;4.80;;;9.90;99.40;;;;;;4991014;28;20301;-71
2023/03/18 02:04:11;;;;;;;4.87;4.47;;;9.90;99.40;;;;;;5006579;28;20225;-71
2023/03/18 02:06:38;;;;;;;5.53;4.50;;;9.90;99.80;;;;;;5010065;28;20304;-71
2023/03/18 02:09:05;;;;;;;7.50;4.60;;;9.90;99.70;;;;;;5010419;28;20673;-71
2023/03/18 02:11:37;;;;;;;5.57;4.77;;;9.90;99.90;;;;;;5004460;28;20345;-71
2023/03/18 02:14:06;;;;;;;6.30;4.30;;;9.90;99.80;;;;;;5010470;28;20284;-72
2023/03/18 02:16:39;;;;;;;4.87;4.37;;;9.90;99.60;;;;;;5010485;28;20312;-72
2023/03/18 02:19:15;;;;;;;5.73;4.27;;;9.90;99.40;;;;;;5010622;28;20281;-72
2023/03/18 02:21:51;;;;;;;6.00;4.27;;;9.80;99.20;;;;;;5010489;28;20288;-72
2023/03/18 02:24:27;;;;;;;5.93;4.50;;;9.90;99.40;;;;;;5010303;28;20267;-72
2023/03/18 02:27:01;;;;;;;7.47;4.40;;;9.80;99.50;;;;;;5010201;28;20193;-72
2023/03/18 02:29:33;;;;;;;6.10;4.50;;;9.80;99.30;;;;;;5010118;28;20292;-72
2023/03/18 02:32:03;;;;;;;5.00;4.10;;;9.90;99.30;;;;;;5009890;28;20628;-72
2023/03/18 02:34:31;;;;;;;4.70;4.30;;;9.80;99.30;;;;;;5010075;28;20209;-72
2023/03/18 02:36:59;;;;;;;7.30;4.47;;;9.80;99.20;;;;;;5009970;28;20623;-72
2023/03/18 02:39:26;;;;;;;4.80;4.30;;;9.80;99.50;;;;;;5010001;28;20272;-72
2023/03/18 02:41:53;;;;;;;5.50;4.83;;;9.80;99.40;;;;;;5009752;28;20752;-72
2023/03/18 02:44:20;;;;;;;6.17;4.40;;;9.80;99.50;;;;;;5009642;28;20260;-72
2023/03/18 02:46:54;;;;;;;5.93;4.53;;;9.80;99.60;;;;;;5010085;28;20292;-72
2023/03/18 02:49:22;;;;;;;6.23;4.70;;;9.80;99.30;;;;;;5010212;28;20220;-72
2023/03/18 02:51:50;;;;;;;6.03;4.07;;;9.80;99.50;;;;;;5010130;28;20665;-71
2023/03/18 02:54:20;;;;;;;4.83;4.27;;;9.80;99.40;;;;;;5010067;28;20217;-72
2023/03/18 02:56:47;;;;;;;8.07;4.50;;;9.80;99.40;;;;;;5009514;28;20834;-72
2023/03/18 02:59:15;;;;;;;5.70;4.50;;;9.80;99.30;;;;;;5010078;28;20209;-72
2023/03/18 03:01:43;;;;;;;4.77;4.27;;;9.80;99.60;;;;;;5009669;28;20698;-72
2023/03/18 03:04:12;;;;;;;8.57;4.63;;;9.80;99.90;;;;;;5009936;28;20237;-72
2023/03/18 03:06:40;;;;;;;5.57;4.03;;;9.70;99.90;;;;;;5009702;28;20216;-71
2023/03/18 03:09:09;;;;;;;4.37;4.03;;;9.70;99.90;;;;;;5009775;28;20213;-72
2023/03/18 03:11:37;;;;;;;6.53;4.40;;;9.70;99.90;;;;;;5009525;28;20212;-73
2023/03/18 03:14:04;;;;;;;5.47;3.90;;;9.70;99.90;;;;;;5009414;28;20308;-73
2023/03/18 03:16:31;;;;;;;9.43;4.50;;;9.70;99.90;;;;;;5009222;28;20256;-73
2023/03/18 03:18:58;;;;;;;6.77;4.10;;;9.70;99.90;;;;;;5009305;28;20197;-73
2023/03/18 03:21:27;;;;;;;4.60;3.83;;;9.70;99.90;;;;;;5009192;28;20237;-73
2023/03/18 03:23:54;;;;;;;6.40;4.13;;;9.70;99.80;;;;;;5009467;28;20324;-73
2023/03/18 03:26:21;;;;;;;4.20;3.80;;;9.70;99.70;;;;;;5009101;28;20210;-73
2023/03/18 03:28:48;;;;;;;5.23;4.30;;;9.60;99.90;;;;;;5009189;28;20259;-73
2023/03/18 03:31:16;;;;;;;6.57;4.10;;;9.60;99.90;;;;;;5008894;28;20721;-73
2023/03/18 03:33:43;;;;;;;4.40;4.10;;;9.60;99.90;;;;;;5009130;28;20209;-73
2023/03/18 03:36:12;;;;;;;4.63;4.13;;;9.60;99.90;;;;;;5012135;28;20224;-73
2023/03/18 03:38:42;;;;;;;5.00;4.30;;;9.60;99.90;;;;;;5028552;28;20303;-73
2023/03/18 03:41:10;;;;;;;9.33;4.27;;;9.60;99.90;;;;;;5015745;28;20267;-72
2023/03/18 03:43:37;;;;;;;4.50;4.10;;;9.60;99.90;;;;;;5008450;28;20284;-73
2023/03/18 03:46:05;;;;;;;4.97;4.10;;;9.60;99.90;;;;;;5008717;28;20284;-73
2023/03/18 03:48:32;;;;;;;5.83;4.50;;;9.60;99.90;;;;;;5008552;28;20205;-73
2023/03/18 03:50:58;;;;;;;5.47;4.17;;;9.60;99.90;;;;;;5008742;28;20209;-73
2023/03/18 03:53:27;;;;;;;5.83;4.23;;;9.60;99.90;;;;;;4997353;28;20297;-71
2023/03/18 03:55:55;;;;;;;4.23;3.83;;;9.50;99.90;;;;;;4998262;28;20695;-71
2023/03/18 03:58:22;;;;;;;5.80;3.80;;;9.50;99.90;;;;;;5008654;28;20792;-71
2023/03/18 04:00:49;;;;;;;4.40;4.00;;;9.50;99.90;;;;;;5008536;28;20224;-71
2023/03/18 04:03:16;;;;;;;5.83;3.77;;;9.50;99.90;;;;;;5008463;28;20292;-71
2023/03/18 04:05:43;;;;;;;5.43;4.37;;;9.40;99.90;;;;;;5008309;28;20253;-71
2023/03/18 04:08:10;;;;;;;4.80;4.07;;;9.40;99.90;;;;;;5008659;28;20210;-71
2023/03/18 04:10:37;;;;;;;5.07;4.20;;;9.40;99.90;;;;;;5007899;28;20328;-71
2023/03/18 04:13:06;;;;;;;5.67;4.00;;;9.40;99.90;;;;;;5007992;28;20237;-71
2023/03/18 04:15:33;;;;;;;4.77;4.10;;;9.50;99.90;;;;;;5008217;28;20310;-71
2023/03/18 04:18:05;;;;;;;5.53;3.80;;;9.40;99.90;;;;;;5008267;28;20205;-69
2023/03/18 04:20:33;;;;;;;5.70;4.30;;;9.40;99.90;;;;;;5008417;28;20201;-69
2023/03/18 04:23:00;;;;;;;9.17;4.17;;;9.40;99.90;;;;;;5008474;28;20210;-69
2023/03/18 04:25:27;;;;;;;4.90;4.40;;;9.40;99.90;;;;;;5007753;28;20296;-70
2023/03/18 04:27:54;;;;;;;4.07;3.67;;;9.40;99.90;;;;;;5007288;28;20735;-71
2023/03/18 04:30:24;;;;;;;4.23;3.50;;;9.40;99.90;;;;;;5007951;28;20743;-71
2023/03/18 04:32:51;;;;;;;4.70;3.90;;;9.40;99.90;;;;;;5008145;28;20213;-72
2023/03/18 04:35:20;;;;;;;5.50;3.67;;;9.40;99.90;;;;;;5007750;28;20210;-72
2023/03/18 04:37:47;;;;;;;4.53;4.10;;;9.30;99.90;;;;;;5016345;28;20200;-72
2023/03/18 04:40:14;;;;;;;4.80;4.40;;;9.30;99.90;;;;;;5008483;28;20206;-70
2023/03/18 04:42:42;;;;;;;4.40;4.00;;;9.20;99.90;;;;;;5007582;28;20215;-71
2023/03/18 04:45:09;;;;;;;4.67;4.00;;;9.20;99.90;;;;;;5007654;28;20342;-71
2023/03/18 04:47:37;;;;;;;3.77;3.47;;;9.20;99.90;;;;;;5007762;28;20292;-71
2023/03/18 04:50:05;;;;;;;4.57;3.93;;;9.20;99.90;;;;;;4993122;28;20212;-70
2023/03/18 04:52:32;;;;;;;4.93;3.80;;;9.30;99.90;;;;;;4997312;28;20308;-70
2023/03/18 04:54:59;;;;;;;4.10;3.80;;;9.30;99.90;;;;;;5007914;28;20588;-69
2023/03/18 04:57:26;;;;;;;4.70;4.23;;;9.30;99.90;;;;;;5007892;28;20205;-69
2023/03/18 04:59:53;;;;;;;4.30;3.90;;;9.30;99.90;;;;;;5007306;28;20213;-69
2023/03/18 05:02:20;;;;;;;5.87;4.00;;;9.30;99.90;;;;;;5007437;28;20309;-69
2023/03/18 05:04:48;;;;;;;5.03;3.80;;;9.30;99.90;;;;;;5007193;28;20324;-69
2023/03/18 05:07:17;;;;;;;4.73;4.10;;;9.20;99.90;;;;;;5007651;28;20283;-70
2023/03/18 05:09:44;;;;;;;5.20;4.23;;;9.20;99.90;;;;;;5007030;28;20260;-71
2023/03/18 05:12:13;;;;;;;6.93;4.30;;;9.20;99.90;;;;;;5005600;28;20292;-71
2023/03/18 05:14:40;;;;;;;4.03;3.60;;;9.20;99.90;;;;;;5006828;28;20262;-70
2023/03/18 05:17:07;;;;;;;4.80;4.37;;;9.20;99.90;;;;;;5007185;28;20237;-70
2023/03/18 05:19:34;;;;;;;4.73;4.13;;;9.20;99.90;;;;;;5007431;28;20241;-69
2023/03/18 05:22:02;;;;;;;7.53;4.03;;;9.10;99.90;;;;;;5007166;28;20289;-71
2023/03/18 05:24:29;;;;;;;4.20;3.77;;;9.10;99.90;;;;;;5007203;28;20287;-71
2023/03/18 05:26:56;;;;;;;4.70;3.63;;;9.10;99.90;;;;;;4996689;28;20776;-72
2023/03/18 05:29:23;;;;;;;4.37;3.90;;;9.10;99.90;;;;;;4987111;28;20669;-72
2023/03/18 05:31:50;;;;;;;5.33;3.67;;;9.00;99.90;;;;;;4989729;28;20213;-72
2023/03/18 05:34:17;;;;;;;5.40;4.17;;;9.00;99.90;;;;;;5007040;28;20213;-72
2023/03/18 05:36:44;;;;;;;4.43;4.00;;;9.00;99.90;;;;;;5014894;28;20205;-72
2023/03/18 05:39:15;;;;;;;4.03;3.63;;;9.00;99.90;;;;;;5026657;28;20278;-70
2023/03/18 05:41:42;;;;;;;5.60;3.97;;;9.00;99.90;;;;;;5008356;28;20205;-70
2023/03/18 05:44:09;;;;;;;5.40;4.40;;;9.00;99.90;;;;;;5006649;28;20262;-71
2023/03/18 05:46:35;;;;;;;5.07;4.30;;;9.00;99.90;;;;;;5006323;28;20296;-69
2023/03/18 05:49:02;;;;;;;4.53;3.80;;;9.00;99.90;;;;;;5006900;28;20305;-69
2023/03/18 05:51:30;;;;;;;4.60;4.20;;;9.00;99.90;;;;;;5006645;28;20213;-70
2023/03/18 05:53:57;;;;;;;5.27;4.23;;;9.00;99.90;;;;;;5006359;28;20568;-71
2023/03/18 05:56:26;;;;;;;4.53;4.07;;;9.00;99.90;;;;;;5006747;28;20201;-71
2023/03/18 05:58:53;;;;;;;5.57;4.40;;;9.00;99.90;;;;;;5006651;28;20205;-71
2023/03/18 06:01:20;;;;;;;8.67;4.27;;;9.00;99.90;;;;;;5006910;28;20221;-71
2023/03/18 06:03:47;;;;;;;5.57;3.93;;;9.00;99.90;;;;;;5006605;28;22707;-71
2023/03/18 06:06:14;;;;;;;4.30;3.93;;;8.90;99.90;;;;;;5006470;28;20945;-69
2023/03/18 06:08:41;;;;;;;7.43;4.17;;;8.90;99.90;;;;;;5006592;28;20653;-70
2023/03/18 06:11:08;;;;;;;6.83;4.30;;;8.90;99.90;;;;;;5006035;28;20241;-69
2023/03/18 06:13:36;;;;;;;6.87;4.03;;;8.90;99.90;;;;;;5006445;28;20389;-69
2023/03/18 06:16:03;;;;;;;5.80;4.13;;;9.00;99.90;;;;;;5006405;28;20634;-69
2023/03/18 06:18:30;;;;;;;3.77;3.47;;;8.90;99.90;;;;;;5006693;28;20224;-68
2023/03/18 06:20:57;;;;;;;5.80;3.90;;;8.90;99.90;;;;;;5006518;28;20594;-69
2023/03/18 06:23:24;;;;;;;4.30;3.90;;;8.90;99.90;;;;;;5006394;28;20708;-69
2023/03/18 06:25:51;;;;;;;5.03;4.23;;;8.90;99.90;;;;;;5006624;28;20252;-69
2023/03/18 06:28:19;;;;;;;5.70;4.37;;;9.00;99.90;;;;;;5006451;28;20758;-71
2023/03/18 06:30:47;;;;;;;3.93;3.63;;;8.90;99.90;;;;;;5006813;28;20465;-72
2023/03/18 06:33:15;;;;;;;4.93;4.20;;;8.90;99.90;;;;;;5006491;28;20202;-71
2023/03/18 06:35:42;;;;;;;4.47;4.07;;;8.90;99.90;;;;;;5006888;28;20580;-71
2023/03/18 06:38:13;;;;;;;4.50;4.10;;;8.90;99.90;;;;;;5006169;28;20292;-70
2023/03/18 06:40:40;;;;;;;5.97;4.27;;;8.90;99.90;;;;;;5006285;28;20252;-70
2023/03/18 06:43:07;;;;;;;3.97;3.67;;;8.90;99.90;;;;;;5005848;28;20696;-70
2023/03/18 06:45:34;;;;;;;4.77;4.20;;;8.90;99.90;;;;;;5006530;28;20324;-70
2023/03/18 06:48:02;;;;;;;4.30;3.60;;;8.90;99.90;;;;;;5006566;28;20241;-71
2023/03/18 06:50:30;;;;;;;5.17;3.87;;;8.90;99.90;;;;;;5006697;28;20245;-71
2023/03/18 06:52:58;;;;;;;4.83;3.90;;;8.90;99.90;;;;;;5009632;28;20206;-71
2023/03/18 06:55:26;;;;;;;4.17;3.73;;;8.90;99.90;;;;;;5010259;28;20205;-71
2023/03/18 06:57:53;;;;;;;4.67;3.90;;;8.90;99.90;;;;;;5009485;28;20683;-71
2023/03/18 07:00:21;;;;;;;5.13;3.73;;;8.90;99.90;;;;;;5009545;28;20209;-70
2023/03/18 07:02:48;;;;;;;4.27;3.87;;;8.80;99.90;;;;;;5008817;28;20201;-72
2023/03/18 07:05:17;;;;;;;5.33;4.30;;;8.80;99.90;;;;;;5009707;28;20263;-70
2023/03/18 07:07:45;;;;;;;4.17;3.50;;;8.90;99.90;;;;;;5009381;28;20695;-69
2023/03/18 07:10:22;;;;;;;5.53;4.00;;;8.90;99.90;;;;;;5009717;28;20241;-70
2023/03/18 07:12:49;;;;;;;5.27;4.00;;;8.90;99.90;;;;;;5000076;28;20693;-70
2023/03/18 07:15:18;;;;;;;4.77;3.70;;;8.90;99.90;;;;;;5008353;28;20241;-70
2023/03/18 07:17:45;;;;;;;6.23;4.20;;;8.90;99.90;;;;;;5008118;28;20212;-70
2023/03/18 07:20:14;;;;;;;5.00;4.50;;;8.90;99.90;;;;;;5007840;28;20205;-70
2023/03/18 07:22:42;;;;;;;4.77;4.07;;;8.90;99.90;;;;;;5007624;28;20214;-70
2023/03/18 07:25:10;;;;;;;5.37;4.43;;;9.00;99.90;;;;;;5007378;28;20239;-70
2023/03/18 07:27:37;;;;;;;7.03;4.03;;;9.00;99.90;;;;;;5007338;28;20208;-70
2023/03/18 07:30:05;;;;;;;4.40;4.00;;;9.00;99.90;;;;;;5007612;28;20724;-70
2023/03/18 07:32:33;;;;;;;4.13;3.73;;;9.10;99.90;;;;;;5006717;28;20292;-70
2023/03/18 07:35:01;;;;;;;6.70;4.07;;;9.10;99.90;;;;;;5006764;28;20220;-70
2023/03/18 07:37:28;;;;;;;4.50;4.10;;;9.20;99.90;;;;;;5006223;28;20210;-70
2023/03/18 07:39:56;;;;;;;4.93;4.23;;;9.20;99.90;;;;;;5007116;28;20236;-70
2023/03/18 07:42:23;;;;;;;4.97;4.00;;;9.20;99.90;;;;;;5007052;28;20245;-71
2023/03/18 07:44:51;;;;;;;4.73;4.20;;;9.30;99.90;;;;;;5006896;28;20324;-71
2023/03/18 07:47:19;;;;;;;4.93;4.43;;;9.40;99.90;;;;;;5006730;28;20238;-72
2023/03/18 07:49:46;;;;;;;5.80;4.50;;;9.40;99.90;;;;;;4994520;28;20285;-71
2023/03/18 07:52:13;;;;;;;4.40;4.00;;;9.50;99.90;;;;;;4988954;28;20748;-70
2023/03/18 07:54:40;;;;;;;4.87;4.13;;;9.50;99.90;;;;;;4995830;28;20289;-71
2023/03/18 07:57:08;;;;;;;7.17;4.20;;;9.60;99.90;;;;;;5008542;28;20661;-71
2023/03/18 07:59:36;;;;;;;5.23;4.40;;;9.70;99.90;;;;;;5008559;28;20272;-74
2023/03/18 08:02:03;;;;;;;4.53;4.10;;;9.70;99.90;;;;;;5008175;28;20206;-71
2023/03/18 08:04:31;;;;;;;4.20;3.80;;;9.80;99.90;;;;;;5007793;28;20495;-71
2023/03/18 08:06:59;;;;;;;4.27;3.97;;;9.90;99.90;;;;;;5008118;28;20366;-71
2023/03/18 08:09:26;;;;;;;4.10;3.80;;;10.00;99.90;;;;;;5007462;28;20320;-71
2023/03/18 08:11:53;;;;;;;5.53;4.63;;;10.10;99.90;;;;;;4997610;28;20238;-71
2023/03/18 08:14:21;;;;;;;4.40;4.00;;;10.10;99.90;;;;;;4987404;28;20206;-71
2023/03/18 08:16:48;;;;;;;4.80;4.30;;;10.10;99.90;;;;;;4987760;28;20317;-71
2023/03/18 08:19:15;;;;;;;5.40;4.03;;;10.10;99.90;;;;;;4996890;28;20206;-71
2023/03/18 08:21:42;;;;;;;7.03;4.33;;;10.20;99.90;;;;;;5007265;28;20308;-71
2023/03/18 08:24:10;;;;;;;4.97;4.47;;;10.20;99.90;;;;;;5007659;28;20580;-71
2023/03/18 08:26:37;;;;;;;6.50;4.03;;;10.40;99.90;;;;;;5007858;28;20269;-71
2023/03/18 08:29:04;;;;;;;5.00;4.50;;;10.50;99.90;;;;;;5007929;28;20642;-71
2023/03/18 08:31:32;;;;;;;5.73;4.30;;;10.60;99.90;;;;;;5008050;28;20216;-71
2023/03/18 08:34:00;;;;;;;5.70;4.20;;;10.70;99.90;;;;;;5002002;28;20309;-71
2023/03/18 08:36:27;;;;;;;4.97;4.07;;;10.80;99.90;;;;;;5007870;28;20228;-71
2023/03/18 08:38:55;;;;;;;5.90;4.20;;;10.80;99.90;;;;;;5007708;28;20209;-70
2023/03/18 08:41:24;;;;;;;4.23;3.83;;;10.80;99.90;;;;;;5007578;28;20280;-71
2023/03/18 08:43:52;;;;;;;4.97;3.97;;;10.90;99.90;;;;;;5006810;28;20201;-70
2023/03/18 08:46:19;;;;;;;5.63;4.30;;;10.90;99.90;;;;;;5007183;28;20318;-71
2023/03/18 08:48:47;;;;;;;4.33;3.93;;;10.90;99.90;;;;;;5008123;28;20280;-70
2023/03/18 08:51:15;;;;;;;4.27;3.83;;;11.00;99.90;;;;;;5007474;28;20292;-71
2023/03/18 08:53:42;;;;;;;3.93;3.63;;;11.00;99.90;;;;;;5013407;28;20582;-70
2023/03/18 08:56:10;;;;;;;5.40;4.10;;;11.00;99.90;;;;;;5005555;28;20323;-71
2023/03/18 08:58:36;;;;;;;7.53;4.07;;;11.10;99.90;;;;;;5002346;28;20272;-71
2023/03/18 09:01:04;;;;;;;4.97;4.00;;;11.10;99.90;;;;;;5003653;28;20291;-71
2023/03/18 09:03:32;;;;;;;4.47;4.07;;;11.10;99.90;;;;;;5003901;28;20271;-71
2023/03/18 09:06:00;;;;;;;4.23;3.80;;;11.10;99.90;;;;;;4998384;28;20702;-71
2023/03/18 09:08:28;;;;;;;4.47;3.87;;;11.10;99.90;;;;;;5003855;28;20206;-70
2023/03/18 09:10:55;;;;;;;8.03;4.10;;;11.10;99.90;;;;;;5003513;28;20249;-71
2023/03/18 09:13:22;;;;;;;6.53;4.00;;;11.20;99.90;;;;;;5003645;28;20263;-70
2023/03/18 09:15:49;;;;;;;4.53;3.63;;;11.40;99.90;;;;;;5003551;28;20320;-70
2023/03/18 09:18:17;;;;;;;3.90;3.60;;;11.50;99.90;;;;;;5003671;28;20284;-71
2023/03/18 09:20:46;;;;;;;4.50;4.03;;;11.60;99.90;;;;;;5003730;28;20228;-71
2023/03/18 09:23:17;;;;;;;6.57;3.90;;;11.70;99.90;;;;;;5002957;28;21010;-71
2023/03/18 09:25:45;;;;;;;3.93;3.50;;;11.80;99.90;;;;;;5003974;28;20251;-71
2023/03/18 09:28:13;;;;;;;4.53;3.93;;;11.80;99.90;;;;;;4984323;28;20677;-71
2023/03/18 09:30:40;;;;;;;5.67;3.83;;;11.90;99.90;;;;;;4996497;28;20275;-71
2023/03/18 09:33:08;;;;;;;4.20;3.80;;;11.90;99.90;;;;;;4997497;28;20312;-71
2023/03/18 09:35:35;;;;;;;4.67;4.27;;;11.90;99.90;;;;;;5003018;28;20608;-71
2023/03/18 09:38:02;;;;;;;7.93;4.47;;;11.90;99.90;;;;;;5003355;28;20237;-71
2023/03/18 09:40:33;;;;;;;4.43;3.70;;;11.90;99.90;;;;;;5003688;28;20956;-72
2023/03/18 09:43:12;;;;;;;3.83;3.50;;;12.10;99.90;;;;;;4999659;28;20212;-71
2023/03/18 09:45:48;;;;;;;4.00;3.60;;;12.10;99.90;;;;;;5004153;28;20217;-71
2023/03/18 09:48:45;;;;;;;4.00;3.60;;;12.20;99.90;;;;;;5003782;28;20293;-71
2023/03/18 09:51:28;;;;;;;4.63;3.43;;;12.40;99.90;;;;;;5003490;28;20252;-71
2023/03/18 09:54:01;;;;;;;4.03;3.63;;;12.50;99.90;;;;;;5005076;28;20613;-72
2023/03/18 09:56:33;;;;;;;3.83;3.53;;;12.50;99.90;;;;;;5016603;28;20690;-71
2023/03/18 09:59:03;;;;;;;4.13;3.70;;;12.60;99.90;;;;;;5008159;28;21008;-71
2023/03/18 10:01:35;;;;;;;4.90;3.53;;;12.60;99.90;;;;;;5004225;28;20237;-71
2023/03/18 10:04:07;;;;;;;3.93;3.50;;;12.70;99.90;;;;;;5004061;28;20296;-72
2023/03/18 10:06:37;;;;;;;5.67;3.77;;;12.80;99.90;;;;;;5003132;28;20248;-72
2023/03/18 10:09:13;;;;;;;6.67;3.70;;;12.80;99.90;;;;;;5003041;28;20205;-71
2023/03/18 10:11:43;;;;;;;4.87;3.87;;;12.90;99.90;;;;;;5003274;28;20212;-72
2023/03/18 10:14:36;;;;;;;4.53;3.57;;;12.90;99.90;;;;;;5003211;28;20200;-71
2023/03/18 10:17:15;;;;;;;5.47;3.57;;;12.80;99.90;;;;;;5003492;28;20237;-72
2023/03/18 10:19:47;;;;;;;4.00;3.70;;;12.90;99.90;;;;;;4998564;28;20534;-72
2023/03/18 10:22:26;;;;;;;4.87;3.73;;;12.90;99.90;;;;;;5003160;28;20628;-72
2023/03/18 10:25:02;;;;;;;4.00;3.40;;;13.00;99.90;;;;;;5004634;28;20682;-72
2023/03/18 10:27:44;;;;;;;3.87;3.53;;;13.00;99.90;;;;;;5007997;28;20302;-72
2023/03/18 10:30:28;;;;;;;3.90;3.60;;;13.10;99.90;;;;;;5008344;28;20197;-72
2023/03/18 10:33:02;;;;;;;3.93;3.20;;;13.10;99.90;;;;;;5007165;28;20206;-72
2023/03/18 10:35:37;;;;;;;4.67;3.20;;;13.20;99.90;;;;;;5007770;28;20678;-72
2023/03/18 10:38:16;;;;;;;3.93;3.33;;;13.20;99.90;;;;;;5008002;28;20197;-72
2023/03/18 10:40:43;;;;;;;4.20;3.30;;;13.20;99.90;;;;;;5007817;28;20193;-72
2023/03/18 10:43:16;;;;;;;3.97;3.60;;;13.30;99.90;;;;;;5006616;28;20308;-72
2023/03/18 10:45:45;;;;;;;3.90;3.30;;;13.30;99.90;;;;;;5007860;28;20775;-72
2023/03/18 10:48:21;;;;;;;4.97;3.40;;;13.40;99.90;;;;;;5008663;28;20299;-71
2023/03/18 10:50:55;;;;;;;5.60;3.37;;;13.50;99.90;;;;;;5008132;28;20201;-72
2023/03/18 10:53:28;;;;;;;6.23;3.50;;;13.60;99.90;;;;;;5008401;28;20206;-71
2023/03/18 10:55:59;;;;;;;4.57;3.30;;;13.60;99.90;;;;;;5008056;28;20288;-72
2023/03/18 10:58:29;;;;;;;4.80;3.80;;;13.60;99.90;;;;;;5008333;28;20275;-71
2023/03/18 11:00:56;;;;;;;5.10;4.70;;;13.60;99.90;;;;;;5007982;28;20213;-71
2023/03/18 11:03:26;;;;;;;4.07;3.70;;;13.70;99.90;;;;;;5007732;28;20292;-71
2023/03/18 11:05:55;;;;;;;4.90;3.60;;;13.80;99.90;;;;;;5007273;28;20233;-72
2023/03/18 11:08:33;;;;;;;3.63;3.37;;;13.80;99.90;;;;;;5007645;28;20305;-72
2023/03/18 11:11:16;;;;;;;3.67;3.20;;;13.80;99.90;;;;;;5005362;28;20237;-72
2023/03/18 11:13:49;;;;;;;4.17;3.77;;;13.80;99.90;;;;;;5005968;28;20201;-72
2023/03/18 11:16:24;;;;;;;8.37;3.60;;;13.80;99.90;;;;;;5006226;28;20245;-72
2023/03/18 11:18:53;;;;;;;6.40;3.57;;;13.80;99.90;;;;;;5006343;28;20251;-72
2023/03/18 11:21:20;;;;;;;3.67;3.23;;;13.80;99.90;;;;;;5006955;28;20264;-72
2023/03/18 11:24:09;;;;;;;5.13;3.43;;;13.80;99.90;;;;;;5006699;28;20209;-72
2023/03/18 11:26:48;;;;;;;4.30;3.27;;;13.80;99.90;;;;;;5006526;28;20228;-72
2023/03/18 11:29:22;;;;;;;4.43;3.80;;;13.90;99.90;;;;;;5006427;28;20218;-72
2023/03/18 11:31:53;;;;;;;3.80;3.40;;;13.90;99.90;;;;;;5006266;28;20964;-72
2023/03/18 11:34:21;;;;;;;4.23;3.47;;;14.00;99.90;;;;;;5006377;28;20288;-72
2023/03/18 11:36:59;;;;;;;4.03;3.70;;;14.10;99.90;;;;;;5006343;28;20217;-72
2023/03/18 11:39:29;;;;;;;3.90;3.40;;;14.20;99.90;;;;;;5004870;28;20295;-72
2023/03/18 11:41:58;;;;;;;5.40;3.97;;;14.30;99.90;;;;;;4997522;28;20970;-72
2023/03/18 11:44:29;;;;;;;3.97;3.57;;;14.40;99.90;;;;;;5000235;28;20201;-72
2023/03/18 11:47:02;;;;;;;3.60;3.30;;;14.50;99.90;;;;;;5005941;28;20993;-72
2023/03/18 11:49:30;;;;;;;3.70;3.40;;;14.70;99.90;;;;;;5006290;28;20198;-72
2023/03/18 11:52:09;;;;;;;5.37;3.77;;;14.80;99.90;;;;;;5006128;28;20220;-72
2023/03/18 11:55:04;;;;;;;4.60;3.60;;;14.90;99.90;;;;;;5005709;28;20201;-72
2023/03/18 11:57:39;;;;;;;4.10;3.40;;;15.10;99.90;;;;;;5006052;28;20311;-72
2023/03/18 12:00:21;;;;;;;31.17;4.83;;;15.20;99.90;;;;;;5006161;28;20217;-72
2023/03/18 12:03:28;;;;;;;4.47;3.70;;;15.30;99.90;;;;;;5005916;28;20556;-73
2023/03/18 12:06:05;;;;;;;5.37;3.60;;;15.40;99.90;;;;;;4969884;28;20748;-73
2023/03/18 12:08:45;;;;;;;7.30;3.87;;;15.50;99.90;;;;;;5005781;28;20190;-72
2023/03/18 12:11:19;;;;;;;4.80;3.43;;;15.50;99.90;;;;;;5004730;28;20320;-72
2023/03/18 12:13:59;;;;;;;3.73;3.33;;;15.60;99.90;;;;;;5005894;28;20248;-72
2023/03/18 12:16:45;;;;;;;4.03;3.60;;;15.70;99.90;;;;;;5005705;28;20197;-73
2023/03/18 12:19:33;;;;;;;3.90;3.50;;;15.80;99.90;;;;;;5005329;28;20664;-73
2023/03/18 12:22:14;;;;;;;4.73;3.30;;;15.80;99.90;;;;;;5004495;28;20308;-73
2023/03/18 12:25:06;;;;;;;5.50;3.40;;;15.90;99.90;;;;;;5005236;28;20229;-73
2023/03/18 12:27:41;;;;;;;5.17;3.90;;;15.80;99.90;;;;;;5004957;28;20834;-73
2023/03/18 12:30:23;;;;;;;3.23;3.00;;;15.90;99.90;;;;;;5005332;28;20225;-73
2023/03/18 12:32:58;;;;;;;3.87;3.40;;;16.00;99.90;;;;;;5005284;28;20194;-73
2023/03/18 12:35:43;;;;;;;3.67;3.27;;;15.90;99.90;;;;;;5004613;28;20308;-73
2023/03/18 12:38:37;;;;;;;5.33;3.40;;;15.90;99.90;;;;;;5004875;28;20248;-72
2023/03/18 12:41:10;;;;;;;5.77;3.60;;;16.00;99.90;;;;;;5002204;28;20305;-72
2023/03/18 12:43:59;;;;;;;5.27;3.50;;;16.00;99.90;;;;;;4989377;28;20244;-72
2023/03/18 12:46:31;;;;;;;5.27;4.00;;;16.00;99.90;;;;;;5004547;28;20217;-73
2023/03/18 12:49:08;;;;;;;5.17;3.83;;;15.90;99.90;;;;;;5004000;28;20198;-72
2023/03/18 12:51:45;;;;;;;5.27;4.13;;;15.70;99.90;;;;;;5004918;28;20295;-72
2023/03/18 12:54:18;;;;;;;4.00;3.60;;;15.70;99.90;;;;;;5004581;28;20225;-72
2023/03/18 12:56:51;;;;;;;3.90;3.60;;;15.80;99.90;;;;;;5004863;28;20210;-73
2023/03/18 12:59:24;;;;;;;4.23;3.77;;;15.80;99.90;;;;;;5006322;28;20201;-73
2023/03/18 13:02:07;;;;;;;3.67;3.37;;;15.90;99.90;;;;;;5003945;28;20215;-73
2023/03/18 13:04:38;;;;;;;4.43;3.30;;;16.20;99.90;;;;;;4997582;28;20288;-73
2023/03/18 13:07:14;;;;;;;4.13;3.63;;;16.50;99.90;;;;;;4997695;28;20281;-72